Time;durP1;ratioP1;P1;durP2;ratioP2;P2;SDS_P1;SDS_P2;PMS_P1;PMS_P2;Temp;Humidity;BMP_temperature;BMP_pressure;BME280_temperature;BME280_humidity;BME280_pressure;Samples;Min_cycle;Max_cycle;Signal;HPM_P1;HPM_P2
2022/12/05 00:01:30;;;;;;;70.67;27.33;;;;;;;1.42;100.00;101241.13;4930806;29;20047;-82
2022/12/05 00:03:59;;;;;;;74.87;30.17;;;;;;;1.39;100.00;101250.59;4910455;29;20135;-82
2022/12/05 00:06:27;;;;;;;77.97;29.10;;;;;;;1.40;100.00;101237.59;4906224;29;20066;-81
2022/12/05 00:08:55;;;;;;;70.47;30.37;;;;;;;1.29;100.00;101240.78;4915635;29;20090;-82
2022/12/05 00:11:24;;;;;;;75.90;29.30;;;;;;;1.23;100.00;101243.22;4911839;29;20047;-82
2022/12/05 00:13:52;;;;;;;75.70;31.30;;;;;;;1.39;100.00;101233.25;4918441;29;20083;-83
2022/12/05 00:16:21;;;;;;;80.20;28.93;;;;;;;1.38;100.00;101236.69;4915074;29;20040;-82
2022/12/05 00:18:52;;;;;;;76.83;29.63;;;;;;;1.53;100.00;101228.41;4924671;29;20444;-82
2022/12/05 00:21:24;;;;;;;72.73;30.47;;;;;;;1.18;100.00;101231.78;4921493;29;20541;-82
2022/12/05 00:23:52;;;;;;;70.63;30.10;;;;;;;1.29;100.00;101232.97;4910232;29;20059;-81
2022/12/05 00:26:19;;;;;;;73.93;31.10;;;;;;;1.32;100.00;101228.72;4907697;29;20054;-82
2022/12/05 00:28:46;;;;;;;81.70;32.73;;;;;;;1.41;100.00;101238.47;4925364;29;20039;-81
2022/12/05 00:31:17;;;;;;;77.13;29.83;;;;;;;1.44;100.00;101241.19;4925551;29;20047;-82
2022/12/05 00:33:44;;;;;;;72.50;30.47;;;;;;;1.41;100.00;101238.47;4913433;29;20050;-81
2022/12/05 00:36:13;;;;;;;73.03;31.00;;;;;;;1.43;100.00;101242.03;4910761;29;20035;-83
2022/12/05 00:38:41;;;;;;;74.57;31.73;;;;;;;1.50;100.00;101233.50;4934686;28;20087;-81
2022/12/05 00:41:10;;;;;;;67.87;29.60;;;;;;;1.37;100.00;101236.66;4943234;28;20043;-81
2022/12/05 00:43:37;;;;;;;70.97;31.00;;;;;;;1.38;100.00;101233.22;4935210;29;21801;-82
2022/12/05 00:46:08;;;;;;;76.97;29.40;;;;;;;1.54;100.00;101224.94;4930500;28;20047;-82
2022/12/05 00:48:35;;;;;;;73.40;28.10;;;;;;;1.44;100.00;101216.88;4945946;29;20907;-81
2022/12/05 00:51:11;;;;;;;77.93;30.00;;;;;;;1.52;100.00;101215.34;4930720;29;20305;-82
2022/12/05 00:53:38;;;;;;;77.83;29.23;;;;;;;1.49;100.00;101220.44;4938442;29;20066;-82
2022/12/05 00:56:10;;;;;;;84.13;31.67;;;;;;;1.58;100.00;101218.06;4928318;29;20138;-81
2022/12/05 00:58:37;;;;;;;77.23;30.83;;;;;;;1.54;100.00;101217.13;4937826;29;20516;-81
2022/12/05 01:01:13;;;;;;;68.80;30.60;;;;;;;1.45;100.00;101223.84;4943927;28;20062;-83
2022/12/05 01:03:40;;;;;;;75.60;29.93;;;;;;;1.51;100.00;101227.44;4944988;28;20040;-82
2022/12/05 01:06:07;;;;;;;74.80;29.83;;;;;;;1.49;100.00;101225.66;4929995;29;20076;-82
2022/12/05 01:08:34;;;;;;;67.63;27.93;;;;;;;1.46;100.00;101217.78;4929263;29;20051;-82
2022/12/05 01:11:01;;;;;;;66.13;26.13;;;;;;;1.39;100.00;101214.13;4938869;29;20043;-82
2022/12/05 01:13:28;;;;;;;77.40;30.67;;;;;;;1.35;100.00;101212.31;4944022;28;20070;-83
2022/12/05 01:15:55;;;;;;;80.13;30.53;;;;;;;1.48;100.00;101211.75;4927645;29;20098;-82
2022/12/05 01:18:22;;;;;;;71.87;29.10;;;;;;;1.56;100.00;101212.84;4930754;29;20035;-81
2022/12/05 01:20:50;;;;;;;68.10;27.70;;;;;;;1.51;100.00;101216.16;4943567;28;20043;-81
2022/12/05 01:23:17;;;;;;;73.30;29.00;;;;;;;1.47;100.00;101217.81;4936863;29;20040;-81
2022/12/05 01:25:47;;;;;;;78.07;27.47;;;;;;;1.53;100.00;101219.69;4937108;29;20047;-81
2022/12/05 01:28:14;;;;;;;71.80;28.97;;;;;;;1.48;100.00;101214.38;4938252;29;20102;-81
2022/12/05 01:30:43;;;;;;;73.30;26.93;;;;;;;1.48;100.00;101219.56;4930728;29;20771;-82
2022/12/05 01:33:10;;;;;;;68.43;27.70;;;;;;;1.51;100.00;101211.81;4930983;29;20066;-82
2022/12/05 01:35:38;;;;;;;70.17;27.97;;;;;;;1.65;100.00;101207.84;4950054;29;20035;-81
2022/12/05 01:38:06;;;;;;;74.20;27.70;;;;;;;1.61;100.00;101213.84;4933976;29;20075;-82
2022/12/05 01:40:34;;;;;;;72.43;27.27;;;;;;;1.50;100.00;101214.41;4921348;29;20043;-81
2022/12/05 01:43:02;;;;;;;66.07;28.50;;;;;;;1.64;100.00;101202.59;4943711;29;20039;-81
2022/12/05 01:45:47;;;;;;;68.53;27.20;;;;;;;1.60;100.00;101199.06;4945987;29;20035;-80
2022/12/05 01:48:20;;;;;;;66.27;27.47;;;;;;;1.53;100.00;101199.75;4927859;29;20043;-80
2022/12/05 01:50:47;;;;;;;73.27;28.40;;;;;;;1.43;100.00;101205.56;4945257;29;20047;-82
2022/12/05 01:53:15;;;;;;;73.67;28.80;;;;;;;1.56;100.00;101199.81;4951821;28;20043;-81
2022/12/05 01:55:43;;;;;;;63.17;25.90;;;;;;;1.57;100.00;101200.69;4946370;28;20051;-81
2022/12/05 01:58:10;;;;;;;68.60;28.50;;;;;;;1.51;100.00;101201.41;4937274;29;20051;-81
2022/12/05 02:00:38;;;;;;;66.07;27.27;;;;;;;1.56;100.00;101196.34;4943661;28;20059;-82
2022/12/05 02:03:11;;;;;;;67.10;26.20;;;;;;;1.59;100.00;101202.47;4931428;29;20054;-82
2022/12/05 02:05:38;;;;;;;67.22;26.35;;;;;;;1.64;100.00;101198.28;4960197;28;20129;-82
2022/12/05 02:08:07;;;;;;;69.63;29.70;;;;;;;1.60;100.00;101193.84;4927416;29;20058;-82
2022/12/05 02:10:37;;;;;;;63.17;27.53;;;;;;;1.57;100.00;101200.69;4925391;29;20101;-82
2022/12/05 02:13:16;;;;;;;64.60;27.30;;;;;;;1.63;100.00;101206.06;4930502;29;20106;-81
2022/12/05 02:15:58;;;;;;;68.43;27.40;;;;;;;1.53;100.00;101204.09;4937027;29;20047;-79
2022/12/05 02:18:36;;;;;;;66.07;27.97;;;;;;;1.40;100.00;101208.09;4927521;28;20094;-81
2022/12/05 02:21:12;;;;;;;63.77;24.90;;;;;;;1.45;100.00;101209.09;4960117;28;20621;-81
2022/12/05 02:24:10;;;;;;;66.63;26.63;;;;;;;1.57;100.00;101208.50;4958849;28;20067;-81
2022/12/05 02:26:45;;;;;;;70.27;26.80;;;;;;;1.37;100.00;101202.81;4934616;29;20489;-80
2022/12/05 02:29:30;;;;;;;;;;;;;;;1.47;100.00;101196.97;4959072;28;20047;-80
2022/12/05 02:32:04;;;;;;;;;;;;;;;1.49;100.00;101205.72;4952433;28;19923;-81
2022/12/05 02:34:41;;;;;;;65.63;27.83;;;;;;;1.64;100.00;101203.50;4928011;28;20424;-80
2022/12/05 02:37:16;;;;;;;65.87;25.77;;;;;;;1.57;100.00;101201.56;4944274;29;20042;-81
2022/12/05 02:39:52;;;;;;;64.43;26.37;;;;;;;1.51;100.00;101209.22;4930160;28;20036;-80
2022/12/05 02:42:24;;;;;;;65.73;27.30;;;;;;;1.53;100.00;101194.53;4951055;29;20048;-81
2022/12/05 02:44:55;;;;;;;59.90;26.90;;;;;;;1.60;100.00;101196.47;4936743;29;20055;-80
2022/12/05 02:47:25;;;;;;;60.87;24.53;;;;;;;1.53;100.00;101197.16;4935181;29;20103;-81
2022/12/05 02:49:52;;;;;;;73.00;27.47;;;;;;;1.60;100.00;101200.78;4951610;29;20035;-81
2022/12/05 02:52:20;;;;;;;69.87;26.63;;;;;;;1.50;100.00;101204.88;4925357;28;20047;-80
2022/12/05 02:54:48;;;;;;;61.40;26.47;;;;;;;1.40;100.00;101200.28;4938794;29;20047;-81
2022/12/05 02:57:15;;;;;;;72.73;28.57;;;;;;;1.56;100.00;101199.81;4945302;29;20047;-80
2022/12/05 02:59:43;;;;;;;59.17;25.50;;;;;;;1.51;100.00;101187.50;4930093;29;20039;-80
2022/12/05 03:02:25;;;;;;;64.80;25.67;;;;;;;1.38;100.00;101197.63;4925871;29;20315;-81
2022/12/05 03:04:55;;;;;;;65.13;27.20;;;;;;;1.53;100.00;101191.94;4925552;29;20043;-81
2022/12/05 03:07:22;;;;;;;62.23;26.80;;;;;;;1.48;100.00;101190.94;4944370;29;20405;-80
2022/12/05 03:09:55;;;;;;;66.53;27.63;;;;;;;1.41;100.00;101191.63;5010364;23;20062;-81
2022/12/05 03:12:29;;;;;;;64.85;26.80;;;;;;;1.43;100.00;101195.16;4917570;29;20051;-81
2022/12/05 03:15:03;;;;;;;64.00;27.77;;;;;;;1.51;100.00;101198.81;4918155;29;20501;-81
2022/12/05 03:17:40;;;;;;;65.27;25.70;;;;;;;1.51;100.00;101204.00;4924615;29;20488;-81
2022/12/05 03:20:31;;;;;;;62.27;25.40;;;;;;;1.51;100.00;101193.59;4918557;28;20044;-81
2022/12/05 03:23:11;;;;;;;72.93;27.60;;;;;;;1.44;100.00;101203.84;4937048;29;20075;-81
2022/12/05 03:25:49;;;;;;;59.87;26.00;;;;;;;1.53;100.00;101204.97;4903181;29;20039;-81
2022/12/05 03:28:24;;;;;;;69.50;28.83;;;;;;;1.54;100.00;101196.31;4943573;29;20555;-81
2022/12/05 03:30:53;;;;;;;60.30;25.23;;;;;;;1.59;100.00;101197.28;4927705;29;20082;-82
2022/12/05 03:33:23;;;;;;;67.13;26.73;;;;;;;1.55;100.00;101199.78;4911592;29;20071;-82
2022/12/05 03:36:02;;;;;;;62.93;24.47;;;;;;;1.51;100.00;101193.59;4935276;29;20040;-81
2022/12/05 03:38:33;;;;;;;55.60;24.73;;;;;;;1.59;100.00;101194.66;4920913;29;20386;-81
2022/12/05 03:41:12;;;;;;;65.27;25.93;;;;;;;1.54;100.00;101188.50;4927240;29;20052;-81
2022/12/05 03:43:52;;;;;;;60.97;24.93;;;;;;;1.55;100.00;101185.03;4922945;29;20043;-81
2022/12/05 03:46:26;;;;;;;59.90;25.50;;;;;;;1.53;100.00;101180.66;4926172;29;20066;-82
2022/12/05 03:49:04;;;;;;;67.60;26.70;;;;;;;1.52;100.00;101184.97;4925526;29;20043;-82
2022/12/05 03:51:34;;;;;;;57.40;24.50;;;;;;;1.55;100.00;101187.63;4930686;29;20048;-81
2022/12/05 03:54:09;;;;;;;59.97;25.13;;;;;;;1.40;100.00;101189.84;4939401;29;20134;-80
2022/12/05 03:56:41;;;;;;;64.30;25.23;;;;;;;1.36;100.00;101188.03;4930716;29;20043;-81
2022/12/05 03:59:37;;;;;;;67.40;26.80;;;;;;;1.49;100.00;101184.88;4930197;29;20050;-81
2022/12/05 04:02:11;;;;;;;63.13;25.73;;;;;;;1.48;100.00;101175.31;4909150;29;20712;-82
2022/12/05 04:04:45;;;;;;;65.67;25.83;;;;;;;1.59;100.00;101171.22;4915568;29;20044;-81
2022/12/05 04:07:12;;;;;;;59.05;24.75;;;;;;;1.53;100.00;101181.53;4916550;29;20055;-81
2022/12/05 04:09:54;;;;;;;65.47;26.23;;;;;;;1.63;100.00;101187.84;4921041;29;20516;-81
2022/12/05 04:12:26;;;;;;;62.97;26.27;;;;;;;1.60;100.00;101179.97;4945336;28;20123;-81
2022/12/05 04:14:58;;;;;;;62.40;25.40;;;;;;;1.58;100.00;101174.69;4935457;29;20035;-81
2022/12/05 04:17:31;;;;;;;66.87;24.63;;;;;;;1.53;100.00;101181.53;4916666;29;20581;-80
2022/12/05 04:22:52;;;;;;;59.80;25.60;;;;;;;1.50;100.00;101176.22;4950087;28;20512;-81
2022/12/05 04:25:34;;;;;;;51.83;23.53;;;;;;;1.56;100.00;101178.09;4930302;29;20044;-81
2022/12/05 04:28:23;;;;;;;56.20;21.27;;;;;;;1.42;100.00;101170.81;4925066;29;20055;-80
2022/12/05 04:31:10;;;;;;;54.73;22.17;;;;;;;1.63;100.00;101178.28;4932748;29;20048;-81
2022/12/05 04:33:56;;;;;;;57.00;24.83;;;;;;;1.57;100.00;101172.94;4950829;28;20048;-80
2022/12/05 04:36:53;;;;;;;53.07;22.30;;;;;;;1.64;100.00;101167.03;4930611;29;20053;-80
2022/12/05 04:39:35;;;;;;;46.27;20.93;;;;;;;1.65;100.00;101175.72;4916878;29;20146;-80
2022/12/05 04:42:11;;;;;;;51.30;22.87;;;;;;;1.53;100.00;101171.09;4947215;28;20497;-80
2022/12/05 04:44:59;;;;;;;51.10;22.83;;;;;;;1.49;100.00;101168.38;4934086;29;20107;-81
2022/12/05 04:47:29;;;;;;;45.63;22.03;;;;;;;1.51;100.00;101166.69;4931223;29;20051;-80
2022/12/05 04:49:57;;;;;;;48.50;21.47;;;;;;;1.60;100.00;101166.94;4931896;29;20401;-81
2022/12/05 04:52:27;;;;;;;54.73;21.60;;;;;;;1.61;100.00;101169.56;4950105;28;20044;-81
2022/12/05 04:55:04;;;;;;;47.87;20.43;;;;;;;1.36;100.00;101169.81;4935141;29;20044;-80
2022/12/05 04:57:35;;;;;;;45.90;20.97;;;;;;;1.54;100.00;101172.88;4934179;29;20039;-80
2022/12/05 05:00:03;;;;;;;48.20;21.20;;;;;;;1.54;100.00;101183.28;4949434;29;20035;-80
2022/12/05 05:02:42;;;;;;;45.40;21.07;;;;;;;1.48;100.00;101172.72;4933580;29;20048;-80
2022/12/05 05:05:10;;;;;;;47.03;20.33;;;;;;;1.57;100.00;101175.53;4949650;29;20051;-81
2022/12/05 05:07:44;;;;;;;50.37;21.57;;;;;;;1.66;100.00;101173.16;4933811;29;20051;-81
2022/12/05 05:10:15;;;;;;;49.07;20.07;;;;;;;1.55;100.00;101177.22;4948968;29;20059;-80
2022/12/05 05:12:41;;;;;;;45.00;19.50;;;;;;;1.64;100.00;101177.44;4916745;29;20047;-80
2022/12/05 05:15:08;;;;;;;53.50;20.77;;;;;;;1.73;100.00;101174.19;4954432;23;20097;-82
2022/12/05 05:17:35;;;;;;;47.83;21.17;;;;;;;1.56;100.00;101171.16;4953081;28;20043;-82
2022/12/05 05:22:49;;;;;;;50.63;20.77;;;;;;;1.57;100.00;101178.13;4948419;28;21587;-86
2022/12/05 05:25:16;;;;;;;51.33;22.97;;;;;;;1.59;100.00;101171.22;4928704;28;20043;-86
2022/12/05 05:27:48;;;;;;;48.57;23.27;;;;;;;1.64;100.00;101167.03;4901739;28;20043;-85
2022/12/05 05:30:18;;;;;;;48.33;19.77;;;;;;;1.62;100.00;101170.44;4936171;28;20039;-86
2022/12/05 05:32:44;;;;;;;42.60;19.30;;;;;;;1.60;100.00;101172.16;4925666;29;20054;-85
2022/12/05 05:35:12;;;;;;;53.17;23.27;;;;;;;1.56;100.00;101175.50;4925978;29;20063;-85
2022/12/05 05:37:39;;;;;;;45.07;19.97;;;;;;;1.58;100.00;101176.41;4918650;29;20083;-85
2022/12/05 05:40:07;;;;;;;47.20;20.03;;;;;;;1.64;100.00;101172.25;4934221;28;20043;-85
2022/12/05 05:42:41;;;;;;;43.97;18.97;;;;;;;1.65;100.00;101171.38;4932589;28;20826;-85
2022/12/05 05:45:09;;;;;;;45.03;19.50;;;;;;;1.71;100.00;101180.19;4931460;28;20046;-85
2022/12/05 05:47:36;;;;;;;41.33;19.90;;;;;;;1.66;100.00;101180.06;4919568;28;20051;-85
2022/12/05 05:50:03;;;;;;;42.10;17.97;;;;;;;1.58;100.00;101182.50;4932957;29;20116;-85
2022/12/05 05:52:32;;;;;;;42.80;17.67;;;;;;;1.58;100.00;101173.81;4918019;28;20089;-85
2022/12/05 05:54:59;;;;;;;38.33;17.03;;;;;;;1.65;100.00;101173.13;4915709;29;20047;-85
2022/12/05 05:57:26;;;;;;;43.33;17.73;;;;;;;1.57;100.00;101172.03;4900396;29;20091;-85
2022/12/05 05:59:53;;;;;;;34.23;15.80;;;;;;;1.56;100.00;101173.78;4926874;29;20492;-85
2022/12/05 06:02:19;;;;;;;40.07;15.63;;;;;;;1.35;100.00;101173.25;4933097;29;20043;-85
2022/12/05 06:04:46;;;;;;;39.10;17.57;;;;;;;1.52;100.00;101179.75;4900106;29;20067;-85
2022/12/05 06:07:13;;;;;;;35.37;15.60;;;;;;;1.52;100.00;101174.56;4931658;28;20066;-85
2022/12/05 06:09:40;;;;;;;33.50;13.83;;;;;;;1.37;100.00;101172.44;4951983;28;20043;-85
2022/12/05 06:12:07;;;;;;;39.33;16.50;;;;;;;1.42;100.00;101176.03;4903338;29;20051;-85
2022/12/05 06:14:34;;;;;;;35.80;17.17;;;;;;;1.46;100.00;101179.59;4933308;28;20055;-85
2022/12/05 06:17:01;;;;;;;33.53;16.57;;;;;;;1.44;100.00;101181.31;4916677;29;20083;-86
2022/12/05 06:19:31;;;;;;;33.00;15.30;;;;;;;1.37;100.00;101179.38;4939656;29;20046;-85
2022/12/05 06:21:57;;;;;;;33.43;14.23;;;;;;;1.29;100.00;101180.91;4929190;29;20051;-84
2022/12/05 06:24:24;;;;;;;31.73;14.53;;;;;;;1.51;100.00;101175.38;4941446;28;20046;-84
2022/12/05 06:26:51;;;;;;;26.40;13.93;;;;;;;1.33;100.00;101183.59;4922125;29;20039;-85
2022/12/05 06:29:17;;;;;;;32.73;14.43;;;;;;;1.38;100.00;101184.63;4933882;28;20097;-85
2022/12/05 06:31:50;;;;;;;35.13;13.87;;;;;;;1.48;100.00;101184.84;4941799;28;20043;-85
2022/12/05 06:34:17;;;;;;;33.57;15.50;;;;;;;1.59;100.00;101189.47;4927878;28;20054;-85
2022/12/05 06:36:43;;;;;;;34.50;15.80;;;;;;;1.42;100.00;101183.84;4925071;29;20047;-85
2022/12/05 06:39:10;;;;;;;27.17;14.00;;;;;;;1.46;100.00;101184.81;4926328;28;20039;-84
2022/12/05 06:41:37;;;;;;;29.73;13.47;;;;;;;1.56;100.00;101191.13;4910352;29;20099;-84
2022/12/05 06:44:03;;;;;;;27.67;12.50;;;;;;;1.52;100.00;101191.91;4903462;29;20114;-84
2022/12/05 06:46:30;;;;;;;25.43;13.03;;;;;;;1.61;100.00;101192.13;4934992;29;20043;-85
2022/12/05 06:48:57;;;;;;;25.83;12.43;;;;;;;1.49;100.00;101197.91;4938200;29;20043;-85
2022/12/05 06:51:24;;;;;;;27.97;13.07;;;;;;;1.59;100.00;101197.28;4923086;29;20047;-85
2022/12/05 06:53:51;;;;;;;24.53;13.07;;;;;;;1.56;100.00;101205.03;4927409;29;20042;-85
2022/12/05 06:56:18;;;;;;;23.33;11.43;;;;;;;1.46;100.00;101205.66;4907168;29;20090;-85
2022/12/05 06:58:49;;;;;;;24.37;13.20;;;;;;;1.54;100.00;101200.63;4939221;29;20468;-85
2022/12/05 07:04:07;;;;;;;24.30;11.67;;;;;;;1.41;100.00;101204.63;4942131;28;20042;-85
2022/12/05 07:06:34;;;;;;;24.77;12.37;;;;;;;1.54;100.00;101206.72;4954421;28;20090;-85
2022/12/05 07:09:02;;;;;;;27.77;13.43;;;;;;;1.54;100.00;101211.94;4914328;29;20051;-84
2022/12/05 07:11:28;;;;;;;25.83;11.80;;;;;;;1.54;100.00;101214.53;4952559;28;20432;-84
2022/12/05 07:13:55;;;;;;;23.00;11.03;;;;;;;1.56;100.00;101218.03;4919709;28;20051;-85
2022/12/05 07:16:22;;;;;;;22.30;11.67;;;;;;;1.41;100.00;101215.03;4955993;28;20472;-85
2022/12/05 07:18:49;;;;;;;23.23;11.73;;;;;;;1.55;100.00;101211.06;4946960;29;20043;-85
2022/12/05 07:21:16;;;;;;;21.37;11.57;;;;;;;1.55;100.00;101210.19;4914169;29;20052;-85
2022/12/05 07:23:44;;;;;;;22.03;10.93;;;;;;;1.52;100.00;101212.75;4922026;29;20471;-85
2022/12/05 07:26:14;;;;;;;25.37;10.93;;;;;;;1.61;100.00;101216.44;4955057;29;20071;-84
2022/12/05 07:28:40;;;;;;;19.63;10.53;;;;;;;1.72;100.00;101214.09;4956563;28;20046;-83
2022/12/05 07:31:10;;;;;;;18.60;9.20;;;;;;;1.67;100.00;101216.56;4929089;29;20125;-85
2022/12/05 07:33:37;;;;;;;21.20;9.97;;;;;;;1.68;100.00;101213.16;4944340;29;20409;-85
2022/12/05 07:36:09;;;;;;;22.47;10.13;;;;;;;1.54;100.00;101218.84;4931455;28;20055;-85
2022/12/05 07:38:36;;;;;;;19.13;9.83;;;;;;;1.46;100.00;101215.19;4929314;29;20076;-84
2022/12/05 07:41:12;;;;;;;18.73;9.90;;;;;;;1.57;100.00;101216.31;4933403;29;20043;-84
2022/12/05 07:43:40;;;;;;;21.47;10.53;;;;;;;1.49;100.00;101221.34;4936647;28;20039;-85
2022/12/05 07:46:10;;;;;;;16.43;8.83;;;;;;;1.64;100.00;101215.63;4965262;28;20049;-84
2022/12/05 07:48:37;;;;;;;22.30;9.93;;;;;;;1.48;100.00;101211.75;4934217;28;20493;-84
2022/12/05 07:51:05;;;;;;;17.50;9.67;;;;;;;1.50;100.00;101210.06;4948252;29;20047;-86
2022/12/05 07:53:32;;;;;;;20.47;9.57;;;;;;;1.67;100.00;101211.38;4924557;29;20047;-84
2022/12/05 07:56:00;;;;;;;17.70;9.77;;;;;;;1.73;100.00;101209.75;4935486;29;20070;-84
2022/12/05 07:58:28;;;;;;;18.90;8.53;;;;;;;1.81;100.00;101205.63;4910489;29;20086;-84
2022/12/05 08:00:55;;;;;;;16.10;7.97;;;;;;;1.83;100.00;101212.63;4972676;28;20106;-84
2022/12/05 08:03:22;;;;;;;16.63;8.30;;;;;;;1.59;100.00;101212.91;4938567;28;20071;-84
2022/12/05 08:05:49;;;;;;;16.77;8.47;;;;;;;1.73;100.00;101221.06;4955079;28;20106;-84
2022/12/05 08:08:15;;;;;;;16.03;8.53;;;;;;;1.70;100.00;101218.41;4939151;29;20047;-85
2022/12/05 08:10:42;;;;;;;19.03;8.70;;;;;;;1.62;100.00;101215.59;4939401;29;20409;-85
2022/12/05 08:13:09;;;;;;;19.07;9.03;;;;;;;1.68;100.00;101228.78;4922809;29;20523;-84
2022/12/05 08:15:35;;;;;;;16.23;8.30;;;;;;;1.45;100.00;101227.31;4929973;29;20046;-85
2022/12/05 08:18:02;;;;;;;15.03;8.13;;;;;;;1.52;100.00;101224.03;4925899;28;20131;-84
2022/12/05 08:20:29;;;;;;;19.20;8.37;;;;;;;1.54;100.00;101216.25;4941709;28;20059;-84
2022/12/05 08:22:56;;;;;;;17.37;9.03;;;;;;;1.73;100.00;101218.47;4943564;29;20058;-84
2022/12/05 08:25:23;;;;;;;14.90;7.87;;;;;;;1.61;100.00;101215.56;4927312;29;20107;-84
2022/12/05 08:27:49;;;;;;;18.53;8.77;;;;;;;1.69;100.00;101214.91;4961030;28;20034;-83
2022/12/05 08:30:17;;;;;;;16.83;8.20;;;;;;;1.66;100.00;101211.34;4926275;28;20047;-84
2022/12/05 08:32:43;;;;;;;17.13;7.90;;;;;;;1.71;100.00;101216.66;4926993;28;20065;-84
2022/12/05 08:35:10;;;;;;;16.27;8.10;;;;;;;1.90;100.00;101218.84;4954021;28;20039;-85
2022/12/05 08:37:37;;;;;;;17.93;9.80;;;;;;;1.72;100.00;101215.81;4938132;29;20043;-85
2022/12/05 08:40:04;;;;;;;16.33;7.87;;;;;;;1.67;100.00;101220.91;4940068;29;20516;-84
2022/12/05 08:42:31;;;;;;;15.90;7.63;;;;;;;1.68;100.00;101220.97;4946939;28;20039;-84
2022/12/05 08:44:57;;;;;;;17.40;8.97;;;;;;;1.66;100.00;101220.03;4934304;28;20051;-85
2022/12/05 08:47:24;;;;;;;15.63;7.80;;;;;;;1.83;100.00;101222.16;4925682;29;20051;-84
2022/12/05 08:49:51;;;;;;;15.70;7.67;;;;;;;1.75;100.00;101224.56;4933883;29;20047;-84
2022/12/05 08:52:18;;;;;;;19.13;9.13;;;;;;;1.92;100.00;101219.78;4940097;29;20077;-84
2022/12/05 08:54:44;;;;;;;14.30;8.10;;;;;;;1.73;100.00;101215.84;4943651;29;20488;-84
2022/12/05 08:57:11;;;;;;;17.33;8.17;;;;;;;1.72;100.00;101223.63;4926330;28;20067;-84
2022/12/05 08:59:37;;;;;;;15.07;8.07;;;;;;;1.74;100.00;101224.53;4926284;28;20050;-85
2022/12/05 09:02:04;;;;;;;19.77;9.07;;;;;;;1.75;100.00;101219.38;4943386;29;20050;-85
2022/12/05 09:04:31;;;;;;;16.87;8.97;;;;;;;1.63;100.00;101219.09;4941758;28;20119;-85
2022/12/05 09:07:01;;;;;;;20.83;8.50;;;;;;;1.76;100.00;101217.63;4945697;28;20447;-84
2022/12/05 09:09:28;;;;;;;19.93;9.50;;;;;;;1.79;100.00;101221.22;4950611;28;20049;-84
2022/12/05 09:11:56;;;;;;;17.67;8.63;;;;;;;1.78;100.00;101218.59;4925876;28;20093;-86
2022/12/05 09:14:23;;;;;;;16.40;7.90;;;;;;;1.85;100.00;101223.06;4959032;28;20043;-85
2022/12/05 09:16:49;;;;;;;18.23;9.50;;;;;;;2.00;100.00;101219.94;4910371;29;20043;-84
2022/12/05 09:19:23;;;;;;;17.43;9.03;;;;;;;1.98;100.00;101217.31;4906633;29;20047;-84
2022/12/05 09:21:50;;;;;;;20.85;9.95;;;;;;;1.93;100.00;101216.31;4902911;29;20131;-84
2022/12/05 09:24:17;;;;;;;17.53;8.93;;;;;;;1.94;100.00;101220.72;4900754;29;20638;-84
2022/12/05 09:26:43;;;;;;;22.37;9.83;;;;;;;2.02;100.00;101213.94;4914509;29;20043;-84
2022/12/05 09:29:11;;;;;;;17.60;8.93;;;;;;;1.94;100.00;101211.16;4922402;29;20120;-84
2022/12/05 09:31:44;;;;;;;17.07;9.37;;;;;;;1.95;100.00;101212.94;4925972;29;20091;-84
2022/12/05 09:34:12;;;;;;;20.23;9.50;;;;;;;1.95;100.00;101206.84;4916564;29;20044;-85
2022/12/05 09:36:39;;;;;;;16.57;8.23;;;;;;;2.12;100.00;101200.28;4910664;29;20054;-84
2022/12/05 09:39:07;;;;;;;16.37;7.83;;;;;;;1.92;100.00;101196.31;4897439;29;20074;-84
2022/12/05 09:44:45;;;;;;;16.77;8.25;;;;;;;2.12;100.00;101195.06;4924481;29;20103;-84
2022/12/05 09:47:27;;;;;;;19.47;9.93;;;;;;;1.94;100.00;101199.88;4898291;29;20139;-85
2022/12/05 09:49:57;;;;;;;17.50;8.40;;;;;;;2.07;100.00;101196.69;4900322;29;20040;-84
2022/12/05 09:52:28;;;;;;;16.73;7.83;;;;;;;1.83;100.00;101194.38;4900640;29;20044;-84
2022/12/05 09:55:00;;;;;;;16.00;8.73;;;;;;;1.92;100.00;101196.31;4899621;29;20048;-85
2022/12/05 09:57:36;;;;;;;17.27;9.20;;;;;;;1.90;100.00;101187.59;4880514;29;20051;-83
2022/12/05 10:00:04;;;;;;;16.70;8.13;;;;;;;1.98;100.00;101192.13;4896244;29;20043;-84
2022/12/05 10:02:39;;;;;;;17.67;9.07;;;;;;;2.05;100.00;101195.78;4887981;29;20046;-85
2022/12/05 10:05:13;;;;;;;16.73;8.83;;;;;;;2.17;100.00;101188.22;4906012;29;20058;-83
2022/12/05 10:07:45;;;;;;;16.27;8.77;;;;;;;2.10;100.00;101186.34;4882842;29;20055;-84
2022/12/05 10:10:49;;;;;;;16.80;9.40;;;;;;;2.04;100.00;101178.38;4901564;29;20040;-83
2022/12/05 10:13:31;;;;;;;18.17;10.00;;;;;;;2.02;100.00;101185.28;4931415;29;20062;-84
2022/12/05 10:16:26;;;;;;;25.93;17.60;;;;;;;2.18;100.00;101184.75;4918514;28;20042;-84
2022/12/05 10:18:59;;;;;;;19.37;11.73;;;;;;;2.06;100.00;101181.88;4885829;29;20490;-83
2022/12/05 10:21:57;;;;;;;17.97;10.53;;;;;;;2.09;100.00;101188.88;4919290;29;20035;-84
2022/12/05 10:24:35;;;;;;;17.60;9.47;;;;;;;2.24;100.00;101182.28;4939450;28;20055;-84
2022/12/05 10:27:05;;;;;;;16.90;8.43;;;;;;;2.21;100.00;101181.34;4950634;28;20047;-83
2022/12/05 10:30:08;;;;;;;17.00;9.73;;;;;;;2.10;100.00;101178.53;4917147;28;20039;-83
2022/12/05 10:32:39;;;;;;;15.27;9.23;;;;;;;2.15;100.00;101179.47;4937553;29;20066;-84
2022/12/05 10:35:16;;;;;;;18.30;8.17;;;;;;;2.14;100.00;101180.34;4927189;29;20043;-83
2022/12/05 10:37:47;;;;;;;15.53;9.23;;;;;;;2.09;100.00;101181.06;4941693;29;20083;-82
2022/12/05 10:40:14;;;;;;;15.60;8.70;;;;;;;2.22;100.00;101173.56;4928083;28;20501;-82
2022/12/05 10:42:40;;;;;;;15.87;8.90;;;;;;;2.09;100.00;101178.47;4944405;28;20042;-82
2022/12/05 10:45:14;;;;;;;18.33;11.23;;;;;;;2.19;100.00;101177.84;4929526;28;20047;-85
2022/12/05 10:47:41;;;;;;;15.90;9.00;;;;;;;2.13;100.00;101175.97;4944489;28;20042;-82
2022/12/05 10:50:31;;;;;;;16.37;8.00;;;;;;;2.13;100.00;101175.97;4928866;28;20050;-84
2022/12/05 10:53:00;;;;;;;16.13;8.57;;;;;;;2.13;100.00;101180.31;4936080;28;20051;-84
2022/12/05 10:55:31;;;;;;;16.63;8.90;;;;;;;2.00;100.00;101173.94;4944436;28;20098;-82
2022/12/05 10:58:13;;;;;;;17.63;8.27;;;;;;;2.18;100.00;101174.31;4914145;28;20043;-84
2022/12/05 11:00:45;;;;;;;18.00;8.33;;;;;;;2.13;100.00;101169.88;4914280;29;20035;-84
2022/12/05 11:03:25;;;;;;;14.73;8.47;;;;;;;2.09;100.00;101165.44;4920219;29;20134;-84
2022/12/05 11:05:53;;;;;;;15.00;7.93;;;;;;;2.16;100.00;101168.22;4906482;29;20039;-84
2022/12/05 11:08:25;;;;;;;14.87;8.43;;;;;;;2.10;100.00;101162.88;4938145;29;20496;-83
2022/12/05 11:11:22;;;;;;;17.40;8.87;;;;;;;2.19;100.00;101159.59;4923717;29;20091;-84
2022/12/05 11:14:06;;;;;;;15.97;7.90;;;;;;;2.19;100.00;101160.47;4917786;29;20046;-83
2022/12/05 11:16:35;;;;;;;14.98;8.70;;;;;;;2.24;100.00;101158.81;4887415;29;20040;-84
2022/12/05 11:19:22;;;;;;;17.20;8.47;;;;;;;2.14;100.00;101161.22;4904988;29;20050;-85
2022/12/05 11:21:49;;;;;;;14.63;7.63;;;;;;;2.31;100.00;101157.22;4905531;29;20043;-84
2022/12/05 11:24:22;;;;;;;16.50;8.60;;;;;;;2.31;100.00;101159.84;4954153;23;20034;-82
2022/12/05 11:26:49;;;;;;;16.33;8.23;;;;;;;2.29;100.00;101145.91;4949723;29;20039;-80
2022/12/05 11:30:00;;;;;;;17.47;9.43;;;;;;;2.28;100.00;101149.34;4941089;28;20511;-80
2022/12/05 11:32:32;;;;;;;15.60;8.30;;;;;;;2.11;100.00;101146.41;4954384;28;20027;-82
2022/12/05 11:35:10;;;;;;;16.20;8.30;;;;;;;2.21;100.00;101139.66;4938620;29;20054;-81
2022/12/05 11:37:43;;;;;;;18.00;9.00;;;;;;;2.17;100.00;101137.81;4960903;28;20050;-81
2022/12/05 11:40:16;;;;;;;18.27;8.77;;;;;;;2.16;100.00;101142.13;4922718;28;20051;-81
2022/12/05 11:43:07;;;;;;;18.60;8.43;;;;;;;2.11;100.00;101127.28;4947636;29;20109;-79